Altamont, NY (12009)

8:39 AM EST on February 06, 2016 (GMT -0500)
Altamont, NY | | Change Station
CLOSE
Current Station
Personal Weather Station
Location: Altamont, NY
Elevation: 364 ft
Nearby Weather Stations

Elev 364 ft 42.71 °N, 74.02 °W | Updated 45 seconds ago

Partly Cloudy
Partly Cloudy
21.9 °F
Feels Like 22 °F
N
0.0
Wind Variable Wind from North
Gusts 0.0 mph

Today
High -- | Low -- °F
--% Chance of Precip.
Yesterday
High -- | Low -- °F
Precip. -- in
Pressure 30.34 in
Visibility 10.0 miles
Clouds Clear
Windchill 22 °F
Dew Point 17 °F
Humidity 81%
Rainfall 0.00 in
Snow Depth Not available.
7:05 AM 5:15 PM
Waning Crescent, 5% visible
METAR KSCH 061259Z 00000KT 10SM CLR M06/M08 A3034
Pressure 30.34 in
Visibility 10.0 miles
Clouds Clear
Windchill 22 °F
Dew Point 17 °F
Humidity 81%
Rainfall 0.00 in
Snow Depth Not available.
7:05 AM 5:15 PM
Waning Crescent, 5% visible
METAR KSCH 061259Z 00000KT 10SM CLR M06/M08 A3034

10-Day Weather Forecast

Almanac

Astronomy

Feb. 06, 2016 Rise Set
Actual Time
Civil Twilight
Nautical Twilight
Astronomical Twilight
Moon
Length of Visible Light
Length of Day
Tomorrow will be .
, % of the Moon is Illuminated

Today's Extremes

State Highs State Lows

Community

WunderPhotos

Upload Photos

1,890,971 photos uploaded!

WunderBlog® & News

Nearby

Air Quality

  Air Quality AQ Index Pollutant
Not available.

Snow Depth

Station Depth Elevation

Earthquake Activity

City Distance Mag. Time & Date
Minimum magnitude displayed is 2.5.

Coastal Water Temperatures

Place Temperature

Stations

Nearby Weather Stations

Station Location Temp. Windchill Dew Point Humidity Wind Precip. Elev Updated Type
                   

Watches & Warnings

There are currently no watches in effect.